sensor_id;sensor_type;location;lat;lon;timestamp;pressure;altitude;pressure_sealevel;temperature;humidity
18987;BME280;9627;59.236;18.142;2023-01-16T00:01:17;97207.69;;;3.55;nan
18987;BME280;9627;59.236;18.142;2023-01-16T00:03:44;97196.28;;;3.49;nan
18987;BME280;9627;59.236;18.142;2023-01-16T00:06:11;97203.56;;;3.47;nan
18987;BME280;9627;59.236;18.142;2023-01-16T00:08:39;97191.63;;;3.51;nan
18987;BME280;9627;59.236;18.142;2023-01-16T00:11:07;97199.13;;;3.48;nan
18987;BME280;9627;59.236;18.142;2023-01-16T00:13:34;97199.38;;;3.46;nan
18987;BME280;9627;59.236;18.142;2023-01-16T00:16:01;97206.13;;;3.54;nan
18987;BME280;9627;59.236;18.142;2023-01-16T00:18:28;97190.94;;;3.44;nan
18987;BME280;9627;59.236;18.142;2023-01-16T00:20:55;97196.44;;;3.54;nan
18987;BME280;9627;59.236;18.142;2023-01-16T00:23:22;97214.63;;;3.49;nan
18987;BME280;9627;59.236;18.142;2023-01-16T00:25:50;97209.53;;;3.54;nan
18987;BME280;9627;59.236;18.142;2023-01-16T00:28:17;97208.16;;;3.52;nan
18987;BME280;9627;59.236;18.142;2023-01-16T00:30:44;97203.72;;;3.52;nan
18987;BME280;9627;59.236;18.142;2023-01-16T00:33:12;97214.22;;;3.52;nan
18987;BME280;9627;59.236;18.142;2023-01-16T00:35:39;97219.56;;;3.57;nan
18987;BME280;9627;59.236;18.142;2023-01-16T00:38:06;97211.94;;;3.56;nan
18987;BME280;9627;59.236;18.142;2023-01-16T00:40:33;97207.81;;;3.48;nan
18987;BME280;9627;59.236;18.142;2023-01-16T00:43:02;97223.78;;;3.47;nan
18987;BME280;9627;59.236;18.142;2023-01-16T00:45:28;97216.09;;;3.45;nan
18987;BME280;9627;59.236;18.142;2023-01-16T00:47:55;97214.22;;;3.52;nan
18987;BME280;9627;59.236;18.142;2023-01-16T00:50:23;97215.69;;;3.48;nan
18987;BME280;9627;59.236;18.142;2023-01-16T00:52:50;97222.03;;;3.41;nan
18987;BME280;9627;59.236;18.142;2023-01-16T00:55:17;97220.19;;;3.41;nan
18987;BME280;9627;59.236;18.142;2023-01-16T00:57:44;97234.91;;;3.42;nan
18987;BME280;9627;59.236;18.142;2023-01-16T01:00:13;97240.16;;;3.42;nan
18987;BME280;9627;59.236;18.142;2023-01-16T01:02:42;97234.03;;;3.48;nan
18987;BME280;9627;59.236;18.142;2023-01-16T01:05:09;97241.16;;;3.41;nan
18987;BME280;9627;59.236;18.142;2023-01-16T01:07:36;97240.97;;;3.43;nan
18987;BME280;9627;59.236;18.142;2023-01-16T01:10:03;97250.66;;;3.42;nan
18987;BME280;9627;59.236;18.142;2023-01-16T01:12:30;97244.81;;;3.40;nan
18987;BME280;9627;59.236;18.142;2023-01-16T01:14:57;97241.31;;;3.46;nan
18987;BME280;9627;59.236;18.142;2023-01-16T01:17:26;97244.94;;;3.45;nan
18987;BME280;9627;59.236;18.142;2023-01-16T01:19:53;97238.78;;;3.40;nan
18987;BME280;9627;59.236;18.142;2023-01-16T01:22:21;97235.50;;;3.44;nan
18987;BME280;9627;59.236;18.142;2023-01-16T01:24:48;97246.56;;;3.46;nan
18987;BME280;9627;59.236;18.142;2023-01-16T01:27:15;97243.66;;;3.36;nan
18987;BME280;9627;59.236;18.142;2023-01-16T01:29:42;97244.59;;;3.42;nan
18987;BME280;9627;59.236;18.142;2023-01-16T01:32:09;97249.47;;;3.38;nan
18987;BME280;9627;59.236;18.142;2023-01-16T01:34:38;97247.78;;;3.44;nan
18987;BME280;9627;59.236;18.142;2023-01-16T01:37:06;97245.97;;;3.44;nan
18987;BME280;9627;59.236;18.142;2023-01-16T01:39:33;97247.72;;;3.50;nan
18987;BME280;9627;59.236;18.142;2023-01-16T01:42:00;97249.19;;;3.46;nan
18987;BME280;9627;59.236;18.142;2023-01-16T01:44:48;97252.03;;;3.45;nan
18987;BME280;9627;59.236;18.142;2023-01-16T01:47:16;97255.06;;;3.42;nan
18987;BME280;9627;59.236;18.142;2023-01-16T01:49:45;97261.34;;;3.41;nan
18987;BME280;9627;59.236;18.142;2023-01-16T01:52:12;97269.56;;;3.44;nan
18987;BME280;9627;59.236;18.142;2023-01-16T01:54:40;97259.31;;;3.43;nan
18987;BME280;9627;59.236;18.142;2023-01-16T01:57:10;97261.94;;;3.43;nan
18987;BME280;9627;59.236;18.142;2023-01-16T01:59:40;97266.84;;;3.51;nan
18987;BME280;9627;59.236;18.142;2023-01-16T02:02:08;97265.91;;;3.45;nan
18987;BME280;9627;59.236;18.142;2023-01-16T02:04:39;97274.47;;;3.41;nan
18987;BME280;9627;59.236;18.142;2023-01-16T02:07:09;97268.53;;;3.45;nan
18987;BME280;9627;59.236;18.142;2023-01-16T02:09:38;97262.41;;;3.51;nan
18987;BME280;9627;59.236;18.142;2023-01-16T02:12:06;97262.41;;;3.51;nan
18987;BME280;9627;59.236;18.142;2023-01-16T02:14:34;97261.59;;;3.51;nan
18987;BME280;9627;59.236;18.142;2023-01-16T02:17:03;97269.13;;;3.47;nan
18987;BME280;9627;59.236;18.142;2023-01-16T02:19:49;97269.22;;;3.41;nan
18987;BME280;9627;59.236;18.142;2023-01-16T02:22:26;97279.84;;;3.46;nan
18987;BME280;9627;59.236;18.142;2023-01-16T02:27:54;97285.84;;;3.35;nan
18987;BME280;9627;59.236;18.142;2023-01-16T02:30:29;97283.44;;;3.33;nan
18987;BME280;9627;59.236;18.142;2023-01-16T02:33:05;97290.50;;;3.33;nan
18987;BME280;9627;59.236;18.142;2023-01-16T02:35:46;97294.34;;;3.30;nan
18987;BME280;9627;59.236;18.142;2023-01-16T02:38:17;97301.44;;;3.30;nan
18987;BME280;9627;59.236;18.142;2023-01-16T02:40:48;97300.53;;;3.36;nan
18987;BME280;9627;59.236;18.142;2023-01-16T02:43:22;97295.09;;;3.37;nan
18987;BME280;9627;59.236;18.142;2023-01-16T02:45:52;97298.06;;;3.41;nan
18987;BME280;9627;59.236;18.142;2023-01-16T02:48:27;97301.34;;;3.36;nan
18987;BME280;9627;59.236;18.142;2023-01-16T02:50:56;97306.09;;;3.28;nan
18987;BME280;9627;59.236;18.142;2023-01-16T02:53:26;97304.06;;;3.30;nan
18987;BME280;9627;59.236;18.142;2023-01-16T02:55:55;97306.66;;;3.30;nan
18987;BME280;9627;59.236;18.142;2023-01-16T02:58:27;97306.44;;;3.31;nan
18987;BME280;9627;59.236;18.142;2023-01-16T03:00:56;97306.00;;;3.34;nan
18987;BME280;9627;59.236;18.142;2023-01-16T03:03:34;97311.09;;;3.29;nan
18987;BME280;9627;59.236;18.142;2023-01-16T03:06:03;97322.06;;;3.38;nan
18987;BME280;9627;59.236;18.142;2023-01-16T03:08:34;97312.56;;;3.25;nan
18987;BME280;9627;59.236;18.142;2023-01-16T03:11:10;97316.28;;;3.18;nan
18987;BME280;9627;59.236;18.142;2023-01-16T03:13:45;97321.00;;;3.27;nan
18987;BME280;9627;59.236;18.142;2023-01-16T03:16:19;97324.50;;;3.21;nan
18987;BME280;9627;59.236;18.142;2023-01-16T03:18:52;97323.09;;;3.19;nan
18987;BME280;9627;59.236;18.142;2023-01-16T03:21:25;97315.41;;;3.24;nan
18987;BME280;9627;59.236;18.142;2023-01-16T03:23:58;97319.91;;;3.17;nan
18987;BME280;9627;59.236;18.142;2023-01-16T03:26:30;97330.38;;;3.17;nan
18987;BME280;9627;59.236;18.142;2023-01-16T03:29:03;97331.69;;;3.08;nan
18987;BME280;9627;59.236;18.142;2023-01-16T03:31:33;97333.81;;;2.99;nan
18987;BME280;9627;59.236;18.142;2023-01-16T03:34:11;97340.66;;;3.00;nan
18987;BME280;9627;59.236;18.142;2023-01-16T03:36:42;97348.38;;;2.95;nan
18987;BME280;9627;59.236;18.142;2023-01-16T03:39:14;97348.28;;;3.02;nan
18987;BME280;9627;59.236;18.142;2023-01-16T03:41:43;97348.66;;;3.05;nan
18987;BME280;9627;59.236;18.142;2023-01-16T03:44:13;97351.13;;;3.00;nan
18987;BME280;9627;59.236;18.142;2023-01-16T03:46:43;97350.28;;;3.06;nan
18987;BME280;9627;59.236;18.142;2023-01-16T03:49:13;97355.50;;;3.06;nan
18987;BME280;9627;59.236;18.142;2023-01-16T03:51:43;97364.59;;;3.04;nan
18987;BME280;9627;59.236;18.142;2023-01-16T03:54:13;97364.81;;;3.02;nan
18987;BME280;9627;59.236;18.142;2023-01-16T03:56:45;97369.47;;;3.00;nan
18987;BME280;9627;59.236;18.142;2023-01-16T03:59:14;97369.56;;;2.94;nan
18987;BME280;9627;59.236;18.142;2023-01-16T04:01:43;97380.22;;;2.92;nan
18987;BME280;9627;59.236;18.142;2023-01-16T04:04:16;97385.47;;;2.92;nan
18987;BME280;9627;59.236;18.142;2023-01-16T04:06:48;97396.16;;;2.91;nan
18987;BME280;9627;59.236;18.142;2023-01-16T04:09:18;97399.00;;;2.89;nan
18987;BME280;9627;59.236;18.142;2023-01-16T04:11:48;97409.63;;;2.94;nan
18987;BME280;9627;59.236;18.142;2023-01-16T04:14:16;97404.25;;;2.89;nan
18987;BME280;9627;59.236;18.142;2023-01-16T04:16:45;97412.72;;;2.84;nan
18987;BME280;9627;59.236;18.142;2023-01-16T04:19:12;97416.97;;;2.86;nan
18987;BME280;9627;59.236;18.142;2023-01-16T04:21:44;97418.63;;;2.80;nan
18987;BME280;9627;59.236;18.142;2023-01-16T04:24:12;97429.31;;;2.78;nan
18987;BME280;9627;59.236;18.142;2023-01-16T04:26:39;97440.81;;;2.77;nan
18987;BME280;9627;59.236;18.142;2023-01-16T04:29:06;97431.63;;;2.68;nan
18987;BME280;9627;59.236;18.142;2023-01-16T04:31:33;97439.56;;;2.55;nan
18987;BME280;9627;59.236;18.142;2023-01-16T04:34:00;97436.66;;;2.39;nan
18987;BME280;9627;59.236;18.142;2023-01-16T04:36:27;97439.69;;;2.36;nan
18987;BME280;9627;59.236;18.142;2023-01-16T04:38:57;97439.84;;;2.41;nan
18987;BME280;9627;59.236;18.142;2023-01-16T04:41:24;97443.88;;;2.43;nan
18987;BME280;9627;59.236;18.142;2023-01-16T04:44:05;97450.91;;;2.43;nan
18987;BME280;9627;59.236;18.142;2023-01-16T04:46:33;97451.13;;;2.41;nan
18987;BME280;9627;59.236;18.142;2023-01-16T04:49:02;97454.59;;;2.35;nan
18987;BME280;9627;59.236;18.142;2023-01-16T04:51:29;97457.41;;;2.34;nan
18987;BME280;9627;59.236;18.142;2023-01-16T04:53:58;97463.13;;;2.24;nan
18987;BME280;9627;59.236;18.142;2023-01-16T04:56:25;97470.00;;;2.19;nan
18987;BME280;9627;59.236;18.142;2023-01-16T04:58:52;97468.63;;;2.10;nan
18987;BME280;9627;59.236;18.142;2023-01-16T05:01:19;97469.84;;;2.07;nan
18987;BME280;9627;59.236;18.142;2023-01-16T05:03:46;97474.88;;;2.09;nan
18987;BME280;9627;59.236;18.142;2023-01-16T05:06:13;97474.06;;;2.08;nan
18987;BME280;9627;59.236;18.142;2023-01-16T05:08:40;97486.09;;;2.16;nan
18987;BME280;9627;59.236;18.142;2023-01-16T05:11:09;97491.53;;;2.21;nan
18987;BME280;9627;59.236;18.142;2023-01-16T05:13:36;97493.31;;;2.20;nan
18987;BME280;9627;59.236;18.142;2023-01-16T05:16:03;97498.72;;;2.25;nan
18987;BME280;9627;59.236;18.142;2023-01-16T05:18:31;97493.53;;;2.19;nan
18987;BME280;9627;59.236;18.142;2023-01-16T05:20:58;97504.41;;;2.16;nan
18987;BME280;9627;59.236;18.142;2023-01-16T05:23:25;97513.69;;;2.12;nan
18987;BME280;9627;59.236;18.142;2023-01-16T05:25:52;97507.66;;;2.11;nan
18987;BME280;9627;59.236;18.142;2023-01-16T05:28:21;97512.66;;;2.19;nan
18987;BME280;9627;59.236;18.142;2023-01-16T05:30:48;97521.72;;;2.17;nan
18987;BME280;9627;59.236;18.142;2023-01-16T05:33:16;97522.97;;;2.08;nan
18987;BME280;9627;59.236;18.142;2023-01-16T05:35:44;97526.59;;;2.07;nan
18987;BME280;9627;59.236;18.142;2023-01-16T05:38:11;97541.47;;;2.06;nan
18987;BME280;9627;59.236;18.142;2023-01-16T05:40:38;97544.69;;;2.08;nan
18987;BME280;9627;59.236;18.142;2023-01-16T05:43:05;97548.28;;;2.14;nan
18987;BME280;9627;59.236;18.142;2023-01-16T05:45:34;97551.53;;;2.09;nan
18987;BME280;9627;59.236;18.142;2023-01-16T05:48:01;97567.03;;;2.17;nan
18987;BME280;9627;59.236;18.142;2023-01-16T05:50:28;97566.22;;;2.17;nan
18987;BME280;9627;59.236;18.142;2023-01-16T05:52:56;97565.41;;;2.16;nan
18987;BME280;9627;59.236;18.142;2023-01-16T05:55:23;97577.66;;;2.16;nan
18987;BME280;9627;59.236;18.142;2023-01-16T05:57:50;97573.25;;;2.16;nan
18987;BME280;9627;59.236;18.142;2023-01-16T06:00:17;97589.97;;;2.15;nan
18987;BME280;9627;59.236;18.142;2023-01-16T06:02:46;97589.53;;;2.18;nan
18987;BME280;9627;59.236;18.142;2023-01-16T06:05:13;97586.94;;;2.18;nan
18987;BME280;9627;59.236;18.142;2023-01-16T06:07:39;97604.66;;;2.16;nan
18987;BME280;9627;59.236;18.142;2023-01-16T06:10:07;97591.78;;;2.15;nan
18987;BME280;9627;59.236;18.142;2023-01-16T06:12:34;97608.69;;;2.12;nan
18987;BME280;9627;59.236;18.142;2023-01-16T06:15:01;97614.34;;;2.09;nan
18987;BME280;9627;59.236;18.142;2023-01-16T06:17:29;97606.28;;;2.11;nan
18987;BME280;9627;59.236;18.142;2023-01-16T06:19:57;97622.22;;;1.96;nan
18987;BME280;9627;59.236;18.142;2023-01-16T06:22:24;97623.63;;;1.92;nan
18987;BME280;9627;59.236;18.142;2023-01-16T06:24:51;97628.88;;;1.79;nan
18987;BME280;9627;59.236;18.142;2023-01-16T06:27:18;97627.28;;;1.71;nan
18987;BME280;9627;59.236;18.142;2023-01-16T06:29:46;97641.75;;;1.67;nan
18987;BME280;9627;59.236;18.142;2023-01-16T06:32:13;97640.34;;;1.71;nan
18987;BME280;9627;59.236;18.142;2023-01-16T06:34:41;97651.59;;;1.78;nan
18987;BME280;9627;59.236;18.142;2023-01-16T06:37:10;97651.41;;;1.73;nan
18987;BME280;9627;59.236;18.142;2023-01-16T06:39:37;97660.25;;;1.59;nan
18987;BME280;9627;59.236;18.142;2023-01-16T06:42:04;97662.66;;;1.61;nan
18987;BME280;9627;59.236;18.142;2023-01-16T06:44:31;97663.88;;;1.52;nan
18987;BME280;9627;59.236;18.142;2023-01-16T06:46:58;97671.31;;;1.48;nan
18987;BME280;9627;59.236;18.142;2023-01-16T06:49:25;97674.72;;;1.55;nan
18987;BME280;9627;59.236;18.142;2023-01-16T06:51:52;97677.13;;;1.57;nan
18987;BME280;9627;59.236;18.142;2023-01-16T06:54:21;97689.81;;;1.53;nan
18987;BME280;9627;59.236;18.142;2023-01-16T06:56:48;97693.63;;;1.44;nan
18987;BME280;9627;59.236;18.142;2023-01-16T06:59:15;97701.06;;;1.41;nan
18987;BME280;9627;59.236;18.142;2023-01-16T07:01:43;97701.44;;;1.38;nan
18987;BME280;9627;59.236;18.142;2023-01-16T07:04:10;97709.88;;;1.40;nan
18987;BME280;9627;59.236;18.142;2023-01-16T07:06:37;97712.72;;;1.45;nan
18987;BME280;9627;59.236;18.142;2023-01-16T07:09:04;97718.34;;;1.48;nan
18987;BME280;9627;59.236;18.142;2023-01-16T07:11:33;97734.81;;;1.49;nan
18987;BME280;9627;59.236;18.142;2023-01-16T07:14:00;97742.09;;;1.53;nan
18987;BME280;9627;59.236;18.142;2023-01-16T07:16:44;97737.66;;;1.54;nan
18987;BME280;9627;59.236;18.142;2023-01-16T07:19:28;97737.06;;;1.52;nan
18987;BME280;9627;59.236;18.142;2023-01-16T07:22:12;97743.91;;;1.46;nan
18987;BME280;9627;59.236;18.142;2023-01-16T07:24:57;97755.94;;;1.41;nan
18987;BME280;9627;59.236;18.142;2023-01-16T07:27:26;97763.56;;;1.36;nan
18987;BME280;9627;59.236;18.142;2023-01-16T07:29:53;97769.19;;;1.33;nan
18987;BME280;9627;59.236;18.142;2023-01-16T07:32:20;97779.84;;;1.31;nan
18987;BME280;9627;59.236;18.142;2023-01-16T07:34:47;97775.63;;;1.37;nan
18987;BME280;9627;59.236;18.142;2023-01-16T07:37:14;97790.09;;;1.39;nan
18987;BME280;9627;59.236;18.142;2023-01-16T07:39:41;97794.53;;;1.39;nan
18987;BME280;9627;59.236;18.142;2023-01-16T07:42:08;97811.19;;;1.38;nan
18987;BME280;9627;59.236;18.142;2023-01-16T07:44:36;97813.41;;;1.34;nan
18987;BME280;9627;59.236;18.142;2023-01-16T07:47:03;97816.84;;;1.35;nan
18987;BME280;9627;59.236;18.142;2023-01-16T07:49:30;97824.25;;;1.31;nan
18987;BME280;9627;59.236;18.142;2023-01-16T07:51:57;97826.25;;;1.29;nan
18987;BME280;9627;59.236;18.142;2023-01-16T07:54:24;97830.47;;;1.24;nan
18987;BME280;9627;59.236;18.142;2023-01-16T07:56:51;97832.88;;;1.25;nan
18987;BME280;9627;59.236;18.142;2023-01-16T07:59:18;97831.84;;;1.26;nan
18987;BME280;9627;59.236;18.142;2023-01-16T08:01:47;97847.53;;;1.26;nan
18987;BME280;9627;59.236;18.142;2023-01-16T08:04:15;97851.97;;;1.26;nan
18987;BME280;9627;59.236;18.142;2023-01-16T08:06:42;97856.00;;;1.28;nan
18987;BME280;9627;59.236;18.142;2023-01-16T08:09:10;97860.81;;;1.25;nan
18987;BME280;9627;59.236;18.142;2023-01-16T08:11:37;97864.00;;;1.20;nan
18987;BME280;9627;59.236;18.142;2023-01-16T08:14:04;97878.06;;;1.19;nan
18987;BME280;9627;59.236;18.142;2023-01-16T08:16:31;97880.06;;;1.17;nan
18987;BME280;9627;59.236;18.142;2023-01-16T08:19:00;97885.69;;;1.14;nan
18987;BME280;9627;59.236;18.142;2023-01-16T08:21:27;97898.13;;;1.12;nan
18987;BME280;9627;59.236;18.142;2023-01-16T08:23:54;97905.00;;;1.20;nan
18987;BME280;9627;59.236;18.142;2023-01-16T08:26:21;97914.25;;;1.22;nan
18987;BME280;9627;59.236;18.142;2023-01-16T08:28:48;97910.25;;;1.26;nan
18987;BME280;9627;59.236;18.142;2023-01-16T08:31:15;97916.25;;;1.20;nan
18987;BME280;9627;59.236;18.142;2023-01-16T08:33:43;97920.25;;;1.16;nan
18987;BME280;9627;59.236;18.142;2023-01-16T08:36:12;97923.50;;;1.18;nan
18987;BME280;9627;59.236;18.142;2023-01-16T08:38:40;97929.09;;;1.15;nan
18987;BME280;9627;59.236;18.142;2023-01-16T08:41:07;97940.28;;;1.09;nan
18987;BME280;9627;59.236;18.142;2023-01-16T08:43:54;97947.47;;;1.01;nan
18987;BME280;9627;59.236;18.142;2023-01-16T08:46:38;97947.63;;;0.92;nan
18987;BME280;9627;59.236;18.142;2023-01-16T08:49:23;97949.56;;;0.84;nan
18987;BME280;9627;59.236;18.142;2023-01-16T08:52:09;97950.16;;;0.86;nan
18987;BME280;9627;59.236;18.142;2023-01-16T08:54:37;97955.38;;;0.86;nan
18987;BME280;9627;59.236;18.142;2023-01-16T08:57:04;97970.09;;;0.87;nan
18987;BME280;9627;59.236;18.142;2023-01-16T08:59:31;97969.47;;;0.85;nan
18987;BME280;9627;59.236;18.142;2023-01-16T09:01:59;97970.91;;;0.87;nan
18987;BME280;9627;59.236;18.142;2023-01-16T09:04:26;97976.28;;;0.86;nan
18987;BME280;9627;59.236;18.142;2023-01-16T09:06:53;97979.16;;;0.91;nan
18987;BME280;9627;59.236;18.142;2023-01-16T09:09:22;97984.94;;;0.86;nan
18987;BME280;9627;59.236;18.142;2023-01-16T09:11:53;97994.34;;;0.81;nan
18987;BME280;9627;59.236;18.142;2023-01-16T09:14:37;98000.38;;;0.81;nan
18987;BME280;9627;59.236;18.142;2023-01-16T09:17:04;98009.03;;;0.82;nan
18987;BME280;9627;59.236;18.142;2023-01-16T09:19:31;98010.09;;;0.94;nan
18987;BME280;9627;59.236;18.142;2023-01-16T09:21:59;98013.34;;;0.96;nan
18987;BME280;9627;59.236;18.142;2023-01-16T09:24:27;98024.38;;;1.19;nan
18987;BME280;9627;59.236;18.142;2023-01-16T09:26:54;98033.53;;;1.64;nan
18987;BME280;9627;59.236;18.142;2023-01-16T09:29:21;98028.53;;;2.10;nan
18987;BME280;9627;59.236;18.142;2023-01-16T09:31:48;98039.16;;;2.55;nan
18987;BME280;9627;59.236;18.142;2023-01-16T09:34:15;98047.50;;;2.92;nan
18987;BME280;9627;59.236;18.142;2023-01-16T09:36:42;98053.94;;;3.41;nan
18987;BME280;9627;59.236;18.142;2023-01-16T09:39:09;98050.25;;;3.88;nan
18987;BME280;9627;59.236;18.142;2023-01-16T09:41:40;98058.44;;;4.18;nan
18987;BME280;9627;59.236;18.142;2023-01-16T09:44:32;98065.84;;;4.34;nan
18987;BME280;9627;59.236;18.142;2023-01-16T09:46:59;98075.97;;;4.30;nan
18987;BME280;9627;59.236;18.142;2023-01-16T09:49:28;98069.00;;;4.55;nan
18987;BME280;9627;59.236;18.142;2023-01-16T09:51:57;98073.16;;;4.69;nan
18987;BME280;9627;59.236;18.142;2023-01-16T09:54:44;98085.50;;;4.18;nan
18987;BME280;9627;59.236;18.142;2023-01-16T09:57:32;98085.97;;;4.02;nan
18987;BME280;9627;59.236;18.142;2023-01-16T10:00:17;98088.00;;;3.81;nan
18987;BME280;9627;59.236;18.142;2023-01-16T10:02:44;98101.09;;;4.00;nan
18987;BME280;9627;59.236;18.142;2023-01-16T10:05:11;98103.47;;;4.21;nan
18987;BME280;9627;59.236;18.142;2023-01-16T10:07:47;98101.84;;;4.27;nan
18987;BME280;9627;59.236;18.142;2023-01-16T10:10:20;98098.28;;;4.52;nan
18987;BME280;9627;59.236;18.142;2023-01-16T10:12:55;98100.75;;;4.47;nan
18987;BME280;9627;59.236;18.142;2023-01-16T10:15:27;98091.63;;;4.56;nan
18987;BME280;9627;59.236;18.142;2023-01-16T10:17:59;98103.63;;;4.84;nan
18987;BME280;9627;59.236;18.142;2023-01-16T10:20:36;98114.03;;;4.59;nan
18987;BME280;9627;59.236;18.142;2023-01-16T10:23:11;98122.38;;;4.49;nan
18987;BME280;9627;59.236;18.142;2023-01-16T10:25:46;98134.84;;;4.54;nan
18987;BME280;9627;59.236;18.142;2023-01-16T10:28:24;98133.34;;;4.27;nan
18987;BME280;9627;59.236;18.142;2023-01-16T10:30:55;98146.66;;;4.38;nan
18987;BME280;9627;59.236;18.142;2023-01-16T10:33:28;98154.97;;;4.16;nan
18987;BME280;9627;59.236;18.142;2023-01-16T10:35:57;98163.25;;;4.13;nan
18987;BME280;9627;59.236;18.142;2023-01-16T10:38:26;98167.72;;;3.79;nan
18987;BME280;9627;59.236;18.142;2023-01-16T10:40:58;98182.47;;;3.61;nan
18987;BME280;9627;59.236;18.142;2023-01-16T10:43:32;98177.03;;;3.69;nan
18987;BME280;9627;59.236;18.142;2023-01-16T10:46:19;98177.22;;;3.54;nan
18987;BME280;9627;59.236;18.142;2023-01-16T10:49:03;98186.88;;;3.34;nan
18987;BME280;9627;59.236;18.142;2023-01-16T10:51:47;98175.34;;;3.16;nan
18987;BME280;9627;59.236;18.142;2023-01-16T10:54:14;98177.16;;;3.15;nan
18987;BME280;9627;59.236;18.142;2023-01-16T10:56:41;98181.56;;;3.15;nan
18987;BME280;9627;59.236;18.142;2023-01-16T10:59:10;98192.88;;;3.15;nan
18987;BME280;9627;59.236;18.142;2023-01-16T11:01:38;98195.31;;;3.23;nan
18987;BME280;9627;59.236;18.142;2023-01-16T11:04:08;98201.16;;;3.25;nan
18987;BME280;9627;59.236;18.142;2023-01-16T11:06:36;98208.03;;;3.33;nan
18987;BME280;9627;59.236;18.142;2023-01-16T11:09:14;98201.97;;;3.32;nan
18987;BME280;9627;59.236;18.142;2023-01-16T11:11:43;98207.66;;;3.42;nan
18987;BME280;9627;59.236;18.142;2023-01-16T11:14:30;98204.63;;;3.45;nan
18987;BME280;9627;59.236;18.142;2023-01-16T11:17:20;98204.66;;;3.52;nan
18987;BME280;9627;59.236;18.142;2023-01-16T11:20:05;98207.47;;;3.50;nan
18987;BME280;9627;59.236;18.142;2023-01-16T11:22:35;98209.69;;;3.53;nan
18987;BME280;9627;59.236;18.142;2023-01-16T11:25:05;98215.13;;;3.52;nan
18987;BME280;9627;59.236;18.142;2023-01-16T11:27:33;98220.59;;;3.63;nan
18987;BME280;9627;59.236;18.142;2023-01-16T11:30:04;98222.03;;;3.66;nan
18987;BME280;9627;59.236;18.142;2023-01-16T11:32:34;98241.19;;;3.79;nan
18987;BME280;9627;59.236;18.142;2023-01-16T11:35:03;98245.66;;;3.92;nan
18987;BME280;9627;59.236;18.142;2023-01-16T11:37:37;98243.44;;;3.83;nan
18987;BME280;9627;59.236;18.142;2023-01-16T11:40:05;98246.88;;;3.96;nan
18987;BME280;9627;59.236;18.142;2023-01-16T11:42:32;98260.59;;;3.85;nan
18987;BME280;9627;59.236;18.142;2023-01-16T11:45:20;98259.19;;;3.83;nan
18987;BME280;9627;59.236;18.142;2023-01-16T11:48:07;98270.81;;;3.60;nan
18987;BME280;9627;59.236;18.142;2023-01-16T11:50:48;98269.66;;;3.83;nan
18987;BME280;9627;59.236;18.142;2023-01-16T11:53:15;98272.28;;;3.83;nan
18987;BME280;9627;59.236;18.142;2023-01-16T11:55:44;98272.25;;;3.56;nan
18987;BME280;9627;59.236;18.142;2023-01-16T11:58:16;98282.56;;;3.71;nan
18987;BME280;9627;59.236;18.142;2023-01-16T12:00:50;98284.16;;;3.59;nan
18987;BME280;9627;59.236;18.142;2023-01-16T12:03:32;98280.91;;;3.57;nan
18987;BME280;9627;59.236;18.142;2023-01-16T12:06:06;98282.94;;;3.61;nan
18987;BME280;9627;59.236;18.142;2023-01-16T12:08:45;98291.19;;;3.52;nan
18987;BME280;9627;59.236;18.142;2023-01-16T12:11:20;98289.16;;;3.47;nan
18987;BME280;9627;59.236;18.142;2023-01-16T12:13:49;98302.75;;;3.64;nan
18987;BME280;9627;59.236;18.142;2023-01-16T12:16:42;98305.75;;;3.54;nan
18987;BME280;9627;59.236;18.142;2023-01-16T12:21:55;98309.94;;;3.42;nan
18987;BME280;9627;59.236;18.142;2023-01-16T12:24:31;98302.59;;;3.25;nan
18987;BME280;9627;59.236;18.142;2023-01-16T12:27:10;98314.06;;;3.17;nan
18987;BME280;9627;59.236;18.142;2023-01-16T12:29:42;98308.22;;;3.15;nan
18987;BME280;9627;59.236;18.142;2023-01-16T12:32:24;98319.47;;;3.09;nan
18987;BME280;9627;59.236;18.142;2023-01-16T12:35:01;98325.72;;;3.08;nan
18987;BME280;9627;59.236;18.142;2023-01-16T12:37:35;98327.94;;;3.05;nan
18987;BME280;9627;59.236;18.142;2023-01-16T12:40:12;98333.94;;;3.05;nan
18987;BME280;9627;59.236;18.142;2023-01-16T12:42:47;98333.13;;;2.98;nan
18987;BME280;9627;59.236;18.142;2023-01-16T12:45:37;98350.41;;;2.93;nan
18987;BME280;9627;59.236;18.142;2023-01-16T12:48:14;98351.00;;;2.88;nan
18987;BME280;9627;59.236;18.142;2023-01-16T12:50:49;98351.44;;;2.92;nan
18987;BME280;9627;59.236;18.142;2023-01-16T12:53:32;98349.03;;;2.97;nan
18987;BME280;9627;59.236;18.142;2023-01-16T12:56:06;98371.94;;;2.88;nan
18987;BME280;9627;59.236;18.142;2023-01-16T12:58:42;98368.28;;;2.82;nan
18987;BME280;9627;59.236;18.142;2023-01-16T13:01:12;98378.59;;;2.84;nan
18987;BME280;9627;59.236;18.142;2023-01-16T13:03:44;98377.97;;;2.82;nan
18987;BME280;9627;59.236;18.142;2023-01-16T13:06:14;98383.84;;;2.84;nan
18987;BME280;9627;59.236;18.142;2023-01-16T13:08:42;98393.53;;;2.90;nan
18987;BME280;9627;59.236;18.142;2023-01-16T13:11:16;98399.38;;;2.86;nan
18987;BME280;9627;59.236;18.142;2023-01-16T13:14:05;98399.72;;;2.82;nan
18987;BME280;9627;59.236;18.142;2023-01-16T13:16:33;98408.72;;;2.73;nan
18987;BME280;9627;59.236;18.142;2023-01-16T13:19:06;98414.09;;;2.65;nan
18987;BME280;9627;59.236;18.142;2023-01-16T13:21:38;98416.50;;;2.60;nan
18987;BME280;9627;59.236;18.142;2023-01-16T13:24:09;98417.66;;;2.58;nan
18987;BME280;9627;59.236;18.142;2023-01-16T13:26:38;98416.25;;;2.55;nan
18987;BME280;9627;59.236;18.142;2023-01-16T13:29:07;98416.19;;;2.49;nan
18987;BME280;9627;59.236;18.142;2023-01-16T13:31:38;98430.28;;;2.48;nan
18987;BME280;9627;59.236;18.142;2023-01-16T13:34:10;98425.91;;;2.34;nan
18987;BME280;9627;59.236;18.142;2023-01-16T13:36:47;98431.97;;;2.34;nan
18987;BME280;9627;59.236;18.142;2023-01-16T13:39:45;98431.72;;;2.29;nan
18987;BME280;9627;59.236;18.142;2023-01-16T13:42:17;98435.84;;;2.17;nan
18987;BME280;9627;59.236;18.142;2023-01-16T13:44:47;98427.09;;;2.10;nan
18987;BME280;9627;59.236;18.142;2023-01-16T13:47:35;98432.84;;;2.20;nan
18987;BME280;9627;59.236;18.142;2023-01-16T13:50:07;98448.03;;;2.10;nan
18987;BME280;9627;59.236;18.142;2023-01-16T13:52:34;98453.63;;;2.07;nan
18987;BME280;9627;59.236;18.142;2023-01-16T13:55:02;98451.94;;;2.00;nan
18987;BME280;9627;59.236;18.142;2023-01-16T13:57:31;98472.97;;;1.92;nan